sensor_id;sensor_type;location;lat;lon;timestamp;temperature;humidity
6407;DHT22;3236;51.022;6.818;2022-09-09T00:00:33;16.30;99.90
6407;DHT22;3236;51.022;6.818;2022-09-09T00:03:12;16.30;99.90
6407;DHT22;3236;51.022;6.818;2022-09-09T00:05:45;16.30;99.90
6407;DHT22;3236;51.022;6.818;2022-09-09T00:08:21;16.20;99.90
6407;DHT22;3236;51.022;6.818;2022-09-09T00:10:53;16.00;99.90
6407;DHT22;3236;51.022;6.818;2022-09-09T00:13:24;15.80;99.90
6407;DHT22;3236;51.022;6.818;2022-09-09T00:15:59;15.70;99.90
6407;DHT22;3236;51.022;6.818;2022-09-09T00:18:31;17.70;99.90
6407;DHT22;3236;51.022;6.818;2022-09-09T00:21:05;15.80;99.90
6407;DHT22;3236;51.022;6.818;2022-09-09T00:23:37;15.70;99.90
6407;DHT22;3236;51.022;6.818;2022-09-09T00:26:18;15.80;99.90
6407;DHT22;3236;51.022;6.818;2022-09-09T00:28:52;15.70;99.90
6407;DHT22;3236;51.022;6.818;2022-09-09T00:31:23;15.70;99.90
6407;DHT22;3236;51.022;6.818;2022-09-09T00:33:52;15.60;99.90
6407;DHT22;3236;51.022;6.818;2022-09-09T00:36:22;15.80;99.90
6407;DHT22;3236;51.022;6.818;2022-09-09T00:38:55;15.80;99.90
6407;DHT22;3236;51.022;6.818;2022-09-09T00:41:35;16.10;99.90
6407;DHT22;3236;51.022;6.818;2022-09-09T00:44:18;16.70;99.90
6407;DHT22;3236;51.022;6.818;2022-09-09T00:47:03;16.20;99.90
6407;DHT22;3236;51.022;6.818;2022-09-09T00:49:42;16.50;99.90
6407;DHT22;3236;51.022;6.818;2022-09-09T00:52:24;16.20;99.90
6407;DHT22;3236;51.022;6.818;2022-09-09T00:55:03;16.20;99.90
6407;DHT22;3236;51.022;6.818;2022-09-09T00:57:33;16.10;99.90
6407;DHT22;3236;51.022;6.818;2022-09-09T01:00:19;16.20;99.90
6407;DHT22;3236;51.022;6.818;2022-09-09T01:02:56;15.80;99.90
6407;DHT22;3236;51.022;6.818;2022-09-09T01:05:35;15.80;99.90
6407;DHT22;3236;51.022;6.818;2022-09-09T01:08:11;15.70;99.90
6407;DHT22;3236;51.022;6.818;2022-09-09T01:10:49;15.80;99.90
6407;DHT22;3236;51.022;6.818;2022-09-09T01:13:26;15.50;99.90
6407;DHT22;3236;51.022;6.818;2022-09-09T01:15:56;15.90;99.90
6407;DHT22;3236;51.022;6.818;2022-09-09T01:18:28;17.70;99.90
6407;DHT22;3236;51.022;6.818;2022-09-09T01:21:04;15.90;99.90
6407;DHT22;3236;51.022;6.818;2022-09-09T01:23:45;15.20;99.90
6407;DHT22;3236;51.022;6.818;2022-09-09T01:26:26;15.40;99.90
6407;DHT22;3236;51.022;6.818;2022-09-09T01:28:55;15.60;99.90
6407;DHT22;3236;51.022;6.818;2022-09-09T01:31:28;15.50;99.90
6407;DHT22;3236;51.022;6.818;2022-09-09T01:36:29;15.10;99.90
6407;DHT22;3236;51.022;6.818;2022-09-09T01:41:28;15.70;99.90
6407;DHT22;3236;51.022;6.818;2022-09-09T01:43:55;16.00;99.90
6407;DHT22;3236;51.022;6.818;2022-09-09T01:48:55;15.60;99.90
6407;DHT22;3236;51.022;6.818;2022-09-09T01:51:22;15.70;99.90
6407;DHT22;3236;51.022;6.818;2022-09-09T01:53:49;15.40;99.90
6407;DHT22;3236;51.022;6.818;2022-09-09T01:56:30;16.10;99.90
6407;DHT22;3236;51.022;6.818;2022-09-09T01:59:07;15.60;99.90
6407;DHT22;3236;51.022;6.818;2022-09-09T02:01:50;16.00;99.90
6407;DHT22;3236;51.022;6.818;2022-09-09T02:04:31;15.70;99.90
6407;DHT22;3236;51.022;6.818;2022-09-09T02:07:02;15.80;99.90
6407;DHT22;3236;51.022;6.818;2022-09-09T02:09:32;15.80;99.90
6407;DHT22;3236;51.022;6.818;2022-09-09T02:12:06;15.90;99.90
6407;DHT22;3236;51.022;6.818;2022-09-09T02:14:41;16.00;99.90
6407;DHT22;3236;51.022;6.818;2022-09-09T02:17:10;15.80;99.90
6407;DHT22;3236;51.022;6.818;2022-09-09T02:19:42;17.90;99.90
6407;DHT22;3236;51.022;6.818;2022-09-09T02:22:11;15.80;99.90
6407;DHT22;3236;51.022;6.818;2022-09-09T02:24:39;15.90;99.90
6407;DHT22;3236;51.022;6.818;2022-09-09T02:27:09;16.00;99.90
6407;DHT22;3236;51.022;6.818;2022-09-09T02:32:11;18.10;99.90
6407;DHT22;3236;51.022;6.818;2022-09-09T02:34:43;16.00;99.90
6407;DHT22;3236;51.022;6.818;2022-09-09T02:37:12;16.00;99.90
6407;DHT22;3236;51.022;6.818;2022-09-09T02:39:40;16.40;99.90
6407;DHT22;3236;51.022;6.818;2022-09-09T02:42:09;16.30;99.90
6407;DHT22;3236;51.022;6.818;2022-09-09T02:44:36;16.00;99.90
6407;DHT22;3236;51.022;6.818;2022-09-09T02:47:15;16.10;99.90
6407;DHT22;3236;51.022;6.818;2022-09-09T02:49:53;15.70;99.90
6407;DHT22;3236;51.022;6.818;2022-09-09T02:52:32;15.90;99.90
6407;DHT22;3236;51.022;6.818;2022-09-09T02:55:08;16.40;99.90
6407;DHT22;3236;51.022;6.818;2022-09-09T02:57:39;15.80;99.90
6407;DHT22;3236;51.022;6.818;2022-09-09T03:00:11;16.00;99.90
6407;DHT22;3236;51.022;6.818;2022-09-09T03:02:38;16.50;99.90
6407;DHT22;3236;51.022;6.818;2022-09-09T03:05:08;16.20;99.90
6407;DHT22;3236;51.022;6.818;2022-09-09T03:07:35;16.10;99.90
6407;DHT22;3236;51.022;6.818;2022-09-09T03:10:03;16.10;99.90
6407;DHT22;3236;51.022;6.818;2022-09-09T03:12:33;16.10;99.90
6407;DHT22;3236;51.022;6.818;2022-09-09T03:15:06;16.20;99.90
6407;DHT22;3236;51.022;6.818;2022-09-09T03:17:33;16.10;99.90
6407;DHT22;3236;51.022;6.818;2022-09-09T03:20:01;16.10;99.90
6407;DHT22;3236;51.022;6.818;2022-09-09T03:24:55;16.20;99.90
6407;DHT22;3236;51.022;6.818;2022-09-09T03:27:29;16.60;99.90
6407;DHT22;3236;51.022;6.818;2022-09-09T03:32:30;16.20;99.90
6407;DHT22;3236;51.022;6.818;2022-09-09T03:34:57;15.90;99.90
6407;DHT22;3236;51.022;6.818;2022-09-09T03:37:30;16.20;99.90
6407;DHT22;3236;51.022;6.818;2022-09-09T03:39:57;16.30;99.90
6407;DHT22;3236;51.022;6.818;2022-09-09T03:42:25;16.40;99.90
6407;DHT22;3236;51.022;6.818;2022-09-09T03:44:52;16.00;99.90
6407;DHT22;3236;51.022;6.818;2022-09-09T03:47:20;16.40;99.90
6407;DHT22;3236;51.022;6.818;2022-09-09T03:52:17;16.40;99.90
6407;DHT22;3236;51.022;6.818;2022-09-09T03:54:48;16.50;99.90
6407;DHT22;3236;51.022;6.818;2022-09-09T03:57:15;16.40;99.90
6407;DHT22;3236;51.022;6.818;2022-09-09T03:59:42;16.40;99.90
6407;DHT22;3236;51.022;6.818;2022-09-09T04:02:10;16.30;99.90
6407;DHT22;3236;51.022;6.818;2022-09-09T04:04:37;16.60;99.90
6407;DHT22;3236;51.022;6.818;2022-09-09T04:07:06;16.30;99.90
6407;DHT22;3236;51.022;6.818;2022-09-09T04:09:36;16.60;99.90
6407;DHT22;3236;51.022;6.818;2022-09-09T04:12:04;16.50;99.90
6407;DHT22;3236;51.022;6.818;2022-09-09T04:14:32;16.20;99.90
6407;DHT22;3236;51.022;6.818;2022-09-09T04:19:26;16.50;99.90
6407;DHT22;3236;51.022;6.818;2022-09-09T04:24:23;16.40;99.90
6407;DHT22;3236;51.022;6.818;2022-09-09T04:26:50;16.30;99.90
6407;DHT22;3236;51.022;6.818;2022-09-09T04:29:18;16.50;99.90
6407;DHT22;3236;51.022;6.818;2022-09-09T04:31:44;16.70;99.90
6407;DHT22;3236;51.022;6.818;2022-09-09T04:34:11;16.40;99.90
6407;DHT22;3236;51.022;6.818;2022-09-09T04:36:38;16.50;99.90
6407;DHT22;3236;51.022;6.818;2022-09-09T04:39:06;16.50;99.90
6407;DHT22;3236;51.022;6.818;2022-09-09T04:41:37;16.20;99.90
6407;DHT22;3236;51.022;6.818;2022-09-09T04:44:04;16.10;99.90
6407;DHT22;3236;51.022;6.818;2022-09-09T04:46:31;16.40;99.90
6407;DHT22;3236;51.022;6.818;2022-09-09T04:48:59;16.00;99.90
6407;DHT22;3236;51.022;6.818;2022-09-09T04:51:26;16.40;99.90
6407;DHT22;3236;51.022;6.818;2022-09-09T04:53:53;16.70;99.90
6407;DHT22;3236;51.022;6.818;2022-09-09T04:56:20;16.40;99.90
6407;DHT22;3236;51.022;6.818;2022-09-09T04:58:49;16.30;99.90
6407;DHT22;3236;51.022;6.818;2022-09-09T05:01:18;16.40;99.90
6407;DHT22;3236;51.022;6.818;2022-09-09T05:03:45;16.30;99.90
6407;DHT22;3236;51.022;6.818;2022-09-09T05:06:16;16.30;99.90
6407;DHT22;3236;51.022;6.818;2022-09-09T05:08:44;16.40;99.90
6407;DHT22;3236;51.022;6.818;2022-09-09T05:11:19;16.30;99.90
6407;DHT22;3236;51.022;6.818;2022-09-09T05:13:51;16.40;99.90
6407;DHT22;3236;51.022;6.818;2022-09-09T05:16:19;16.00;99.90
6407;DHT22;3236;51.022;6.818;2022-09-09T05:18:49;16.60;99.90
6407;DHT22;3236;51.022;6.818;2022-09-09T05:21:21;16.20;99.90
6407;DHT22;3236;51.022;6.818;2022-09-09T05:23:48;17.20;99.90
6407;DHT22;3236;51.022;6.818;2022-09-09T05:26:21;16.30;99.90
6407;DHT22;3236;51.022;6.818;2022-09-09T05:28:51;16.30;99.90
6407;DHT22;3236;51.022;6.818;2022-09-09T05:31:19;16.30;99.90
6407;DHT22;3236;51.022;6.818;2022-09-09T05:33:47;16.50;99.90
6407;DHT22;3236;51.022;6.818;2022-09-09T05:36:16;16.60;99.90
6407;DHT22;3236;51.022;6.818;2022-09-09T05:38:44;17.00;99.90
6407;DHT22;3236;51.022;6.818;2022-09-09T05:41:15;16.50;99.90
6407;DHT22;3236;51.022;6.818;2022-09-09T05:46:14;16.60;99.90
6407;DHT22;3236;51.022;6.818;2022-09-09T05:48:43;16.80;99.90
6407;DHT22;3236;51.022;6.818;2022-09-09T05:51:14;17.00;99.90
6407;DHT22;3236;51.022;6.818;2022-09-09T05:53:43;16.60;99.90
6407;DHT22;3236;51.022;6.818;2022-09-09T05:56:14;17.00;99.90
6407;DHT22;3236;51.022;6.818;2022-09-09T05:58:43;17.10;99.90
6407;DHT22;3236;51.022;6.818;2022-09-09T06:01:15;17.20;99.90
6407;DHT22;3236;51.022;6.818;2022-09-09T06:03:47;17.50;99.90
6407;DHT22;3236;51.022;6.818;2022-09-09T06:06:15;17.30;99.90
6407;DHT22;3236;51.022;6.818;2022-09-09T06:08:44;17.40;99.90
6407;DHT22;3236;51.022;6.818;2022-09-09T06:11:18;17.40;99.90
6407;DHT22;3236;51.022;6.818;2022-09-09T06:13:46;17.30;99.90
6407;DHT22;3236;51.022;6.818;2022-09-09T06:16:16;17.60;99.90
6407;DHT22;3236;51.022;6.818;2022-09-09T06:18:43;18.30;99.90
6407;DHT22;3236;51.022;6.818;2022-09-09T06:21:15;17.50;99.90
6407;DHT22;3236;51.022;6.818;2022-09-09T06:23:42;17.50;99.90
6407;DHT22;3236;51.022;6.818;2022-09-09T06:26:12;17.50;99.90
6407;DHT22;3236;51.022;6.818;2022-09-09T06:28:40;17.30;99.90
6407;DHT22;3236;51.022;6.818;2022-09-09T06:31:10;17.30;99.90
6407;DHT22;3236;51.022;6.818;2022-09-09T06:33:40;17.40;99.90
6407;DHT22;3236;51.022;6.818;2022-09-09T06:36:11;17.30;99.90
6407;DHT22;3236;51.022;6.818;2022-09-09T06:41:05;17.80;99.90
6407;DHT22;3236;51.022;6.818;2022-09-09T06:43:33;17.20;99.90
6407;DHT22;3236;51.022;6.818;2022-09-09T06:46:02;17.80;99.90
6407;DHT22;3236;51.022;6.818;2022-09-09T06:51:03;17.70;99.90
6407;DHT22;3236;51.022;6.818;2022-09-09T06:55:59;17.90;99.90
6407;DHT22;3236;51.022;6.818;2022-09-09T06:58:27;17.90;99.90
6407;DHT22;3236;51.022;6.818;2022-09-09T07:01:02;17.90;99.90
6407;DHT22;3236;51.022;6.818;2022-09-09T07:05:56;18.30;99.90
6407;DHT22;3236;51.022;6.818;2022-09-09T07:08:26;18.30;99.90
6407;DHT22;3236;51.022;6.818;2022-09-09T07:10:54;18.40;99.90
6407;DHT22;3236;51.022;6.818;2022-09-09T07:13:24;19.30;99.90
6407;DHT22;3236;51.022;6.818;2022-09-09T07:15:51;18.90;99.90
6407;DHT22;3236;51.022;6.818;2022-09-09T07:18:19;18.80;99.90
6407;DHT22;3236;51.022;6.818;2022-09-09T07:20:53;18.30;99.90
6407;DHT22;3236;51.022;6.818;2022-09-09T07:23:21;18.70;99.90
6407;DHT22;3236;51.022;6.818;2022-09-09T07:25:50;18.60;99.90
6407;DHT22;3236;51.022;6.818;2022-09-09T07:28:21;18.60;99.90
6407;DHT22;3236;51.022;6.818;2022-09-09T07:30:56;19.20;99.90
6407;DHT22;3236;51.022;6.818;2022-09-09T07:33:24;18.90;99.90
6407;DHT22;3236;51.022;6.818;2022-09-09T07:36:03;19.60;99.90
6407;DHT22;3236;51.022;6.818;2022-09-09T07:38:31;19.20;99.90
6407;DHT22;3236;51.022;6.818;2022-09-09T07:41:05;19.30;99.90
6407;DHT22;3236;51.022;6.818;2022-09-09T07:43:34;19.00;99.90
6407;DHT22;3236;51.022;6.818;2022-09-09T07:46:02;19.30;99.90
6407;DHT22;3236;51.022;6.818;2022-09-09T07:48:32;19.00;99.90
6407;DHT22;3236;51.022;6.818;2022-09-09T07:51:05;19.50;99.90
6407;DHT22;3236;51.022;6.818;2022-09-09T07:53:33;19.80;99.90
6407;DHT22;3236;51.022;6.818;2022-09-09T07:56:08;19.50;99.90
6407;DHT22;3236;51.022;6.818;2022-09-09T07:58:37;19.40;99.90
6407;DHT22;3236;51.022;6.818;2022-09-09T08:01:09;19.20;99.90
6407;DHT22;3236;51.022;6.818;2022-09-09T08:03:37;19.70;99.90
6407;DHT22;3236;51.022;6.818;2022-09-09T08:06:06;19.30;99.90
6407;DHT22;3236;51.022;6.818;2022-09-09T08:08:34;19.70;99.90
6407;DHT22;3236;51.022;6.818;2022-09-09T08:11:06;19.20;99.90
6407;DHT22;3236;51.022;6.818;2022-09-09T08:13:35;19.60;99.90
6407;DHT22;3236;51.022;6.818;2022-09-09T08:16:07;19.70;99.90
6407;DHT22;3236;51.022;6.818;2022-09-09T08:18:37;19.70;99.90
6407;DHT22;3236;51.022;6.818;2022-09-09T08:21:09;19.80;99.90
6407;DHT22;3236;51.022;6.818;2022-09-09T08:23:38;20.10;99.90
6407;DHT22;3236;51.022;6.818;2022-09-09T08:26:12;19.80;99.90
6407;DHT22;3236;51.022;6.818;2022-09-09T08:31:08;20.30;99.90
6407;DHT22;3236;51.022;6.818;2022-09-09T08:33:36;19.80;99.90
6407;DHT22;3236;51.022;6.818;2022-09-09T08:36:05;19.90;99.90
6407;DHT22;3236;51.022;6.818;2022-09-09T08:38:32;20.30;99.90
6407;DHT22;3236;51.022;6.818;2022-09-09T08:41:30;19.80;99.90
6407;DHT22;3236;51.022;6.818;2022-09-09T08:44:06;19.80;99.90
6407;DHT22;3236;51.022;6.818;2022-09-09T08:46:42;19.60;99.90
6407;DHT22;3236;51.022;6.818;2022-09-09T08:49:35;19.90;99.90
6407;DHT22;3236;51.022;6.818;2022-09-09T08:52:12;19.90;99.90
6407;DHT22;3236;51.022;6.818;2022-09-09T08:54:42;20.10;99.90
6407;DHT22;3236;51.022;6.818;2022-09-09T08:57:14;19.80;99.90
6407;DHT22;3236;51.022;6.818;2022-09-09T08:59:45;20.20;99.90
6407;DHT22;3236;51.022;6.818;2022-09-09T09:02:16;20.10;99.90
6407;DHT22;3236;51.022;6.818;2022-09-09T09:05:00;20.50;99.90
6407;DHT22;3236;51.022;6.818;2022-09-09T09:07:40;19.70;99.90
6407;DHT22;3236;51.022;6.818;2022-09-09T09:12:43;20.20;99.90
6407;DHT22;3236;51.022;6.818;2022-09-09T09:15:16;20.50;99.90
6407;DHT22;3236;51.022;6.818;2022-09-09T09:17:44;20.10;99.90
6407;DHT22;3236;51.022;6.818;2022-09-09T09:20:13;20.00;99.90
6407;DHT22;3236;51.022;6.818;2022-09-09T09:22:52;20.00;99.90
6407;DHT22;3236;51.022;6.818;2022-09-09T09:25:27;19.90;99.90
6407;DHT22;3236;51.022;6.818;2022-09-09T09:28:07;20.00;99.90
6407;DHT22;3236;51.022;6.818;2022-09-09T09:30:46;19.70;99.90
6407;DHT22;3236;51.022;6.818;2022-09-09T09:33:21;20.10;99.90
6407;DHT22;3236;51.022;6.818;2022-09-09T09:35:53;20.60;99.90
6407;DHT22;3236;51.022;6.818;2022-09-09T09:38:26;20.30;99.90
6407;DHT22;3236;51.022;6.818;2022-09-09T09:40:58;19.90;99.90
6407;DHT22;3236;51.022;6.818;2022-09-09T09:43:28;20.20;99.90
6407;DHT22;3236;51.022;6.818;2022-09-09T09:45:55;20.30;99.90
6407;DHT22;3236;51.022;6.818;2022-09-09T09:48:24;20.30;99.90
6407;DHT22;3236;51.022;6.818;2022-09-09T09:50:55;19.80;99.90
6407;DHT22;3236;51.022;6.818;2022-09-09T09:53:25;20.30;99.90
6407;DHT22;3236;51.022;6.818;2022-09-09T09:55:56;20.70;99.90
6407;DHT22;3236;51.022;6.818;2022-09-09T10:00:54;20.70;99.90
6407;DHT22;3236;51.022;6.818;2022-09-09T10:03:26;20.70;99.90
6407;DHT22;3236;51.022;6.818;2022-09-09T10:05:54;20.90;99.90
6407;DHT22;3236;51.022;6.818;2022-09-09T10:08:22;20.60;99.90
6407;DHT22;3236;51.022;6.818;2022-09-09T10:11:07;19.60;99.90
6407;DHT22;3236;51.022;6.818;2022-09-09T10:13:46;20.90;99.90
6407;DHT22;3236;51.022;6.818;2022-09-09T10:16:27;21.30;99.90
6407;DHT22;3236;51.022;6.818;2022-09-09T10:19:00;21.70;99.90
6407;DHT22;3236;51.022;6.818;2022-09-09T10:21:34;21.30;99.90
6407;DHT22;3236;51.022;6.818;2022-09-09T10:24:44;21.50;99.90
6407;DHT22;3236;51.022;6.818;2022-09-09T10:27:29;21.60;99.90
6407;DHT22;3236;51.022;6.818;2022-09-09T10:30:16;20.90;99.90
6407;DHT22;3236;51.022;6.818;2022-09-09T10:32:51;21.60;99.90
6407;DHT22;3236;51.022;6.818;2022-09-09T10:35:27;21.20;99.90
6407;DHT22;3236;51.022;6.818;2022-09-09T10:38:13;22.40;99.90
6407;DHT22;3236;51.022;6.818;2022-09-09T10:41:00;22.60;99.90
6407;DHT22;3236;51.022;6.818;2022-09-09T10:43:46;23.90;99.90
6407;DHT22;3236;51.022;6.818;2022-09-09T10:51:51;23.80;99.90
6407;DHT22;3236;51.022;6.818;2022-09-09T10:54:35;21.40;99.90
6407;DHT22;3236;51.022;6.818;2022-09-09T10:57:12;21.90;99.90
6407;DHT22;3236;51.022;6.818;2022-09-09T11:10:02;21.30;99.90
6407;DHT22;3236;51.022;6.818;2022-09-09T11:12:36;21.30;99.90
6407;DHT22;3236;51.022;6.818;2022-09-09T11:17:53;20.80;99.90
6407;DHT22;3236;51.022;6.818;2022-09-09T11:23:09;20.70;99.90
6407;DHT22;3236;51.022;6.818;2022-09-09T11:28:31;21.30;99.90
6407;DHT22;3236;51.022;6.818;2022-09-09T11:54:55;20.60;99.90
6407;DHT22;3236;51.022;6.818;2022-09-09T11:57:35;20.50;99.90
6407;DHT22;3236;51.022;6.818;2022-09-09T12:05:07;19.70;99.90
6407;DHT22;3236;51.022;6.818;2022-09-09T12:10:34;20.00;99.90
6407;DHT22;3236;51.022;6.818;2022-09-09T12:13:17;20.20;99.90
6407;DHT22;3236;51.022;6.818;2022-09-09T12:15:49;20.10;99.90
6407;DHT22;3236;51.022;6.818;2022-09-09T12:18:33;19.80;99.90
6407;DHT22;3236;51.022;6.818;2022-09-09T12:21:13;19.10;99.90
6407;DHT22;3236;51.022;6.818;2022-09-09T12:26:34;18.70;99.90
6407;DHT22;3236;51.022;6.818;2022-09-09T12:29:14;18.80;99.90
6407;DHT22;3236;51.022;6.818;2022-09-09T12:31:56;19.00;99.90
6407;DHT22;3236;51.022;6.818;2022-09-09T12:39:45;19.00;99.90
6407;DHT22;3236;51.022;6.818;2022-09-09T12:44:53;16.90;99.90
6407;DHT22;3236;51.022;6.818;2022-09-09T12:49:55;16.40;99.90
6407;DHT22;3236;51.022;6.818;2022-09-09T12:52:29;17.10;99.90
6407;DHT22;3236;51.022;6.818;2022-09-09T12:55:05;17.60;99.90
6407;DHT22;3236;51.022;6.818;2022-09-09T13:00:17;19.00;99.90
6407;DHT22;3236;51.022;6.818;2022-09-09T13:02:49;20.10;99.90
6407;DHT22;3236;51.022;6.818;2022-09-09T13:05:24;19.70;99.90
6407;DHT22;3236;51.022;6.818;2022-09-09T13:08:02;19.60;99.90
6407;DHT22;3236;51.022;6.818;2022-09-09T13:20:47;20.10;99.90
6407;DHT22;3236;51.022;6.818;2022-09-09T13:25:56;20.10;99.90
6407;DHT22;3236;51.022;6.818;2022-09-09T13:28:54;21.00;99.90
6407;DHT22;3236;51.022;6.818;2022-09-09T13:31:24;21.80;99.90
6407;DHT22;3236;51.022;6.818;2022-09-09T13:34:11;21.40;99.90
6407;DHT22;3236;51.022;6.818;2022-09-09T13:36:47;21.60;99.90
6407;DHT22;3236;51.022;6.818;2022-09-09T13:41:46;20.70;99.90
6407;DHT22;3236;51.022;6.818;2022-09-09T13:47:00;22.00;99.90
6407;DHT22;3236;51.022;6.818;2022-09-09T13:49:30;21.60;99.90
6407;DHT22;3236;51.022;6.818;2022-09-09T13:54:48;21.20;99.90
6407;DHT22;3236;51.022;6.818;2022-09-09T13:57:18;20.80;99.90
6407;DHT22;3236;51.022;6.818;2022-09-09T13:59:47;21.10;99.90
6407;DHT22;3236;51.022;6.818;2022-09-09T14:02:16;21.00;99.90
6407;DHT22;3236;51.022;6.818;2022-09-09T14:04:45;20.80;99.90
6407;DHT22;3236;51.022;6.818;2022-09-09T14:07:14;20.80;99.90
6407;DHT22;3236;51.022;6.818;2022-09-09T14:12:16;21.00;99.90
6407;DHT22;3236;51.022;6.818;2022-09-09T14:27:10;17.80;99.90
6407;DHT22;3236;51.022;6.818;2022-09-09T14:32:08;17.60;99.90
6407;DHT22;3236;51.022;6.818;2022-09-09T14:37:09;17.60;99.90
6407;DHT22;3236;51.022;6.818;2022-09-09T14:49:37;18.70;99.90
6407;DHT22;3236;51.022;6.818;2022-09-09T14:52:05;18.60;99.90
6407;DHT22;3236;51.022;6.818;2022-09-09T14:54:33;18.80;99.90
6407;DHT22;3236;51.022;6.818;2022-09-09T14:57:02;18.90;99.90
6407;DHT22;3236;51.022;6.818;2022-09-09T15:04:25;19.10;99.90
6407;DHT22;3236;51.022;6.818;2022-09-09T15:09:21;19.40;99.90
6407;DHT22;3236;51.022;6.818;2022-09-09T15:11:48;18.00;99.90
6407;DHT22;3236;51.022;6.818;2022-09-09T15:14:15;20.30;99.90
6407;DHT22;3236;51.022;6.818;2022-09-09T15:16:42;20.00;99.90
6407;DHT22;3236;51.022;6.818;2022-09-09T15:19:09;19.90;99.90
6407;DHT22;3236;51.022;6.818;2022-09-09T15:21:44;19.10;99.90
6407;DHT22;3236;51.022;6.818;2022-09-09T15:24:11;19.00;99.90
6407;DHT22;3236;51.022;6.818;2022-09-09T15:26:39;19.00;99.90
6407;DHT22;3236;51.022;6.818;2022-09-09T15:29:06;18.70;99.90
6407;DHT22;3236;51.022;6.818;2022-09-09T15:31:34;19.00;99.90
6407;DHT22;3236;51.022;6.818;2022-09-09T15:34:03;19.60;99.90
6407;DHT22;3236;51.022;6.818;2022-09-09T15:36:33;19.20;99.90
6407;DHT22;3236;51.022;6.818;2022-09-09T15:39:03;19.20;99.90
6407;DHT22;3236;51.022;6.818;2022-09-09T15:43:58;19.60;99.90
6407;DHT22;3236;51.022;6.818;2022-09-09T15:46:29;19.90;99.90
6407;DHT22;3236;51.022;6.818;2022-09-09T15:48:57;20.20;99.90
6407;DHT22;3236;51.022;6.818;2022-09-09T15:51:25;19.50;99.90
6407;DHT22;3236;51.022;6.818;2022-09-09T15:53:57;20.70;99.90
6407;DHT22;3236;51.022;6.818;2022-09-09T15:56:26;19.80;99.90
6407;DHT22;3236;51.022;6.818;2022-09-09T15:59:02;20.20;99.90
6407;DHT22;3236;51.022;6.818;2022-09-09T16:01:30;20.00;99.90
6407;DHT22;3236;51.022;6.818;2022-09-09T16:03:57;19.80;99.90
6407;DHT22;3236;51.022;6.818;2022-09-09T16:06:26;19.70;99.90
6407;DHT22;3236;51.022;6.818;2022-09-09T16:08:55;19.20;99.90
6407;DHT22;3236;51.022;6.818;2022-09-09T16:11:25;19.30;99.90
6407;DHT22;3236;51.022;6.818;2022-09-09T16:13:54;19.00;99.90
6407;DHT22;3236;51.022;6.818;2022-09-09T16:16:26;18.80;99.90
6407;DHT22;3236;51.022;6.818;2022-09-09T16:18:54;18.50;99.90
6407;DHT22;3236;51.022;6.818;2022-09-09T16:21:23;18.30;99.90
6407;DHT22;3236;51.022;6.818;2022-09-09T16:23:52;19.30;99.90
6407;DHT22;3236;51.022;6.818;2022-09-09T16:26:20;18.90;99.90
6407;DHT22;3236;51.022;6.818;2022-09-09T16:28:49;18.70;99.90
6407;DHT22;3236;51.022;6.818;2022-09-09T16:31:19;19.10;99.90
6407;DHT22;3236;51.022;6.818;2022-09-09T16:33:47;17.20;99.90
6407;DHT22;3236;51.022;6.818;2022-09-09T16:36:16;18.60;99.90
6407;DHT22;3236;51.022;6.818;2022-09-09T16:38:43;18.20;99.90
6407;DHT22;3236;51.022;6.818;2022-09-09T16:41:11;18.90;99.90
6407;DHT22;3236;51.022;6.818;2022-09-09T16:43:40;18.80;99.90
6407;DHT22;3236;51.022;6.818;2022-09-09T16:46:20;18.50;99.90
6407;DHT22;3236;51.022;6.818;2022-09-09T17:01:53;18.70;99.90
6407;DHT22;3236;51.022;6.818;2022-09-09T17:04:21;18.20;99.90
6407;DHT22;3236;51.022;6.818;2022-09-09T17:06:51;18.20;99.90
6407;DHT22;3236;51.022;6.818;2022-09-09T17:09:24;18.40;99.90
6407;DHT22;3236;51.022;6.818;2022-09-09T17:11:54;18.80;99.90
6407;DHT22;3236;51.022;6.818;2022-09-09T17:14:22;18.10;99.90
6407;DHT22;3236;51.022;6.818;2022-09-09T17:16:53;18.50;99.90
6407;DHT22;3236;51.022;6.818;2022-09-09T17:19:20;18.40;99.90
6407;DHT22;3236;51.022;6.818;2022-09-09T17:21:49;17.90;99.90
6407;DHT22;3236;51.022;6.818;2022-09-09T17:24:17;18.30;99.90
6407;DHT22;3236;51.022;6.818;2022-09-09T17:31:44;18.50;99.90
6407;DHT22;3236;51.022;6.818;2022-09-09T17:34:18;18.20;99.90
6407;DHT22;3236;51.022;6.818;2022-09-09T17:36:46;18.40;99.90
6407;DHT22;3236;51.022;6.818;2022-09-09T17:39:36;18.20;99.90
6407;DHT22;3236;51.022;6.818;2022-09-09T17:42:09;18.10;99.90
6407;DHT22;3236;51.022;6.818;2022-09-09T18:02:06;18.30;99.90
6407;DHT22;3236;51.022;6.818;2022-09-09T18:04:37;17.50;99.90
6407;DHT22;3236;51.022;6.818;2022-09-09T18:07:07;17.70;99.90
6407;DHT22;3236;51.022;6.818;2022-09-09T18:09:35;18.20;99.90
6407;DHT22;3236;51.022;6.818;2022-09-09T18:17:02;17.60;99.90
6407;DHT22;3236;51.022;6.818;2022-09-09T18:19:31;17.70;99.90
6407;DHT22;3236;51.022;6.818;2022-09-09T18:22:00;17.50;99.90
6407;DHT22;3236;51.022;6.818;2022-09-09T18:24:29;17.40;99.90
6407;DHT22;3236;51.022;6.818;2022-09-09T18:29:29;17.10;99.90
6407;DHT22;3236;51.022;6.818;2022-09-09T18:31:56;17.10;99.90
6407;DHT22;3236;51.022;6.818;2022-09-09T18:36:55;17.10;99.90
6407;DHT22;3236;51.022;6.818;2022-09-09T18:39:25;17.30;99.90
6407;DHT22;3236;51.022;6.818;2022-09-09T18:41:57;17.20;99.90
6407;DHT22;3236;51.022;6.818;2022-09-09T18:44:28;17.20;99.90
6407;DHT22;3236;51.022;6.818;2022-09-09T18:46:56;17.10;99.90
6407;DHT22;3236;51.022;6.818;2022-09-09T18:49:24;17.20;99.90
6407;DHT22;3236;51.022;6.818;2022-09-09T18:51:52;17.50;99.90
6407;DHT22;3236;51.022;6.818;2022-09-09T18:54:23;16.80;99.90
6407;DHT22;3236;51.022;6.818;2022-09-09T18:56:56;16.80;99.90
6407;DHT22;3236;51.022;6.818;2022-09-09T18:59:25;16.90;99.90
6407;DHT22;3236;51.022;6.818;2022-09-09T19:01:53;16.50;99.90
6407;DHT22;3236;51.022;6.818;2022-09-09T19:04:21;16.50;99.90
6407;DHT22;3236;51.022;6.818;2022-09-09T19:06:49;17.00;99.90
6407;DHT22;3236;51.022;6.818;2022-09-09T19:09:23;16.50;99.90
6407;DHT22;3236;51.022;6.818;2022-09-09T19:11:50;16.20;99.90
6407;DHT22;3236;51.022;6.818;2022-09-09T19:14:18;16.60;99.90
6407;DHT22;3236;51.022;6.818;2022-09-09T19:16:46;16.50;99.90
6407;DHT22;3236;51.022;6.818;2022-09-09T19:19:16;16.40;99.90
6407;DHT22;3236;51.022;6.818;2022-09-09T19:21:44;16.70;99.90
6407;DHT22;3236;51.022;6.818;2022-09-09T19:24:14;16.10;99.90
6407;DHT22;3236;51.022;6.818;2022-09-09T19:26:43;16.10;99.90
6407;DHT22;3236;51.022;6.818;2022-09-09T19:29:12;16.40;99.90
6407;DHT22;3236;51.022;6.818;2022-09-09T19:31:42;16.40;99.90
6407;DHT22;3236;51.022;6.818;2022-09-09T19:34:10;16.50;99.90
6407;DHT22;3236;51.022;6.818;2022-09-09T19:36:37;16.00;99.90
6407;DHT22;3236;51.022;6.818;2022-09-09T19:39:05;16.00;99.90
6407;DHT22;3236;51.022;6.818;2022-09-09T19:41:33;15.90;99.90
6407;DHT22;3236;51.022;6.818;2022-09-09T19:44:04;16.20;99.90
6407;DHT22;3236;51.022;6.818;2022-09-09T19:49:02;15.80;99.90
6407;DHT22;3236;51.022;6.818;2022-09-09T19:51:30;15.80;99.90
6407;DHT22;3236;51.022;6.818;2022-09-09T19:54:01;16.20;99.90
6407;DHT22;3236;51.022;6.818;2022-09-09T19:56:33;16.60;99.90
6407;DHT22;3236;51.022;6.818;2022-09-09T19:59:02;16.60;99.90
6407;DHT22;3236;51.022;6.818;2022-09-09T20:01:31;16.40;99.90
6407;DHT22;3236;51.022;6.818;2022-09-09T20:04:03;16.50;99.90
6407;DHT22;3236;51.022;6.818;2022-09-09T20:06:32;16.00;99.90
6407;DHT22;3236;51.022;6.818;2022-09-09T20:09:01;15.70;99.90
6407;DHT22;3236;51.022;6.818;2022-09-09T20:16:24;16.30;99.90